Time;durP1;ratioP1;P1;durP2;ratioP2;P2;SDS_P1;SDS_P2;PMS_P1;PMS_P2;Temp;Humidity;BMP_temperature;BMP_pressure;BME280_temperature;BME280_humidity;BME280_pressure;Samples;Min_cycle;Max_cycle;Signal;HPM_P1;HPM_P2
2022/04/30 00:02:20;;;;;;;4.78;2.52;;;;;;;10.87;88.06;150387.02;1733383;82;21323;-60
2022/04/30 00:04:49;;;;;;;8.70;3.00;;;;;;;10.86;88.21;150383.16;1732501;82;21043;-59
2022/04/30 00:07:18;;;;;;;4.67;3.05;;;;;;;10.86;88.06;150384.44;1732985;82;20992;-59
2022/04/30 00:09:46;;;;;;;4.15;2.58;;;;;;;10.87;87.55;150385.75;1732568;82;21051;-59
2022/04/30 00:12:18;;;;;;;5.92;2.85;;;;;;;10.85;87.64;150381.84;1732866;82;21426;-58
2022/04/30 00:14:46;;;;;;;7.28;3.08;;;;;;;10.85;87.72;150381.84;1732613;82;21354;-59
2022/04/30 00:17:14;;;;;;;8.33;2.87;;;;;;;10.86;87.40;150384.44;1732970;82;21494;-59
2022/04/30 00:19:41;;;;;;;4.10;2.65;;;;;;;10.85;87.54;150380.56;1733371;82;21004;-59
2022/04/30 00:22:09;;;;;;;4.65;2.85;;;;;;;10.85;87.29;150380.56;1732978;82;21262;-60
2022/04/30 00:24:40;;;;;;;4.83;2.80;;;;;;;10.84;87.29;150377.97;1732410;82;21135;-59
2022/04/30 00:27:07;;;;;;;7.30;2.60;;;;;;;10.82;86.85;150374.06;1732848;82;21268;-61
2022/04/30 00:29:34;;;;;;;6.67;2.62;;;;;;;10.79;86.54;150364.95;1732667;82;21047;-60
2022/04/30 00:32:02;;;;;;;3.85;2.70;;;;;;;10.74;86.52;150353.31;1733380;82;21036;-60
2022/04/30 00:34:30;;;;;;;5.05;2.35;;;;;;;10.73;86.34;150350.72;1733354;82;20952;-59
2022/04/30 00:37:02;;;;;;;3.77;2.42;;;;;;;10.72;86.73;150348.06;1732986;82;21059;-60
2022/04/30 00:39:30;;;;;;;4.08;2.80;;;;;;;10.72;86.78;150348.06;1733307;82;21317;-59
2022/04/30 00:41:57;;;;;;;4.80;2.60;;;;;;;10.70;86.73;150342.88;1732523;82;21048;-59
2022/04/30 00:44:24;;;;;;;5.37;2.20;;;;;;;10.72;86.90;150348.06;1733248;82;20957;-60
2022/04/30 00:46:52;;;;;;;5.20;2.80;;;;;;;10.73;86.82;150350.72;1732792;82;21072;-59
2022/04/30 00:49:19;;;;;;;5.42;2.80;;;;;;;10.74;86.90;150353.31;1733239;82;20998;-59
2022/04/30 00:51:46;;;;;;;5.85;2.83;;;;;;;10.74;86.72;150353.31;1732819;82;21052;-58
2022/04/30 00:54:14;;;;;;;5.65;3.00;;;;;;;10.72;86.57;150348.06;1733250;82;20906;-59
2022/04/30 00:57:01;;;;;;;8.10;3.72;;;;;;;10.70;86.73;150344.20;1732866;82;21474;-59
2022/04/30 00:59:30;;;;;;;6.22;3.67;;;;;;;10.67;86.97;150335.09;1728943;82;21146;-60
2022/04/30 01:01:59;;;;;;;9.20;3.90;;;;;;;10.63;87.46;150324.73;1714661;83;21065;-60
2022/04/30 01:04:45;;;;;;;6.12;3.67;;;;;;;10.58;87.77;150313.03;1714511;83;21186;-61
2022/04/30 01:07:13;;;;;;;5.70;3.62;;;;;;;10.54;88.23;150303.98;1714710;83;21002;-60
2022/04/30 01:09:43;;;;;;;6.10;3.65;;;;;;;10.49;88.46;150290.97;1713984;83;21049;-60
2022/04/30 01:12:11;;;;;;;6.42;3.80;;;;;;;10.47;88.63;150285.78;1714370;83;21258;-60
2022/04/30 01:14:40;;;;;;;5.42;3.15;;;;;;;10.42;88.93;150272.83;1714181;83;21502;-60
2022/04/30 01:17:09;;;;;;;6.03;3.37;;;;;;;10.37;89.15;150259.81;1714353;83;21202;-59
2022/04/30 01:19:42;;;;;;;5.33;3.60;;;;;;;10.32;89.39;150248.13;1714397;83;20997;-60
2022/04/30 01:22:24;;;;;;;5.40;3.65;;;;;;;10.28;89.76;150237.75;1714690;83;21057;-60
2022/04/30 01:25:01;;;;;;;6.35;4.28;;;;;;;10.24;89.97;150227.38;1714515;83;21113;-60
2022/04/30 01:27:28;;;;;;;6.05;4.10;;;;;;;10.19;90.33;150215.69;1714728;82;21085;-60
2022/04/30 01:29:58;;;;;;;6.80;4.20;;;;;;;10.16;90.69;150207.91;1714240;82;21319;-60
2022/04/30 01:38:05;;;;;;;8.95;6.22;;;;;;;9.99;91.30;150166.39;1714438;83;22160;-59
2022/04/30 01:40:32;;;;;;;9.98;6.05;;;;;;;9.95;91.40;150154.75;1714957;83;21443;-59
2022/04/30 01:43:01;;;;;;;9.78;6.10;;;;;;;9.92;91.50;150146.92;1714535;83;21884;-59
2022/04/30 01:45:29;;;;;;;11.57;5.87;;;;;;;9.89;91.49;150140.47;1714389;83;21069;-60
2022/04/30 01:47:57;;;;;;;8.10;5.25;;;;;;;9.86;91.75;150132.70;1714403;82;21045;-60
2022/04/30 01:50:24;;;;;;;7.75;4.95;;;;;;;9.85;91.76;150130.11;1714708;83;20906;-60
2022/04/30 01:52:51;;;;;;;8.70;5.20;;;;;;;9.83;91.83;150124.87;1714349;83;20973;-59
2022/04/30 01:55:18;;;;;;;9.03;4.35;;;;;;;9.81;92.01;150119.69;1714965;83;21916;-60
2022/04/30 01:57:47;;;;;;;7.50;4.70;;;;;;;9.78;92.31;150113.23;1714332;83;21045;-60
2022/04/30 02:00:15;;;;;;;8.18;4.60;;;;;;;9.74;92.17;150104.14;1710790;82;21045;-59
2022/04/30 02:02:45;;;;;;;8.48;4.20;;;;;;;9.72;92.32;150097.64;1704282;84;21092;-59
2022/04/30 02:05:15;;;;;;;6.20;3.83;;;;;;;9.72;92.33;150097.64;1704365;83;21053;-60
2022/04/30 02:08:00;;;;;;;6.50;3.85;;;;;;;9.70;92.07;150093.78;1704213;83;21101;-59
2022/04/30 02:10:29;;;;;;;5.10;3.60;;;;;;;9.70;91.88;150092.45;1704252;83;21396;-61
2022/04/30 02:12:56;;;;;;;5.40;3.40;;;;;;;9.68;91.81;150088.59;1704119;83;21018;-60
2022/04/30 02:15:24;;;;;;;5.30;3.60;;;;;;;9.66;91.30;150083.41;1704433;84;20942;-60
2022/04/30 02:17:52;;;;;;;6.95;3.27;;;;;;;9.66;91.38;150082.09;1692138;84;21073;-59
2022/04/30 02:20:22;;;;;;;5.50;3.30;;;;;;;9.65;91.32;150080.81;1704418;83;21242;-59
2022/04/30 02:22:50;;;;;;;5.58;3.30;;;;;;;9.63;91.30;150075.64;1704267;83;21435;-59
2022/04/30 02:25:17;;;;;;;6.70;3.12;;;;;;;9.60;91.20;150069.12;1704871;83;21038;-60
2022/04/30 02:27:47;;;;;;;4.65;3.10;;;;;;;9.60;91.00;150067.81;1704334;83;20991;-59
2022/04/30 02:30:17;;;;;;;5.37;2.70;;;;;;;9.60;91.04;150067.81;1704857;83;21040;-59
2022/04/30 02:32:48;;;;;;;4.17;3.17;;;;;;;9.59;90.88;150065.22;1703925;83;21251;-59
2022/04/30 02:35:18;;;;;;;5.70;2.92;;;;;;;9.59;90.79;150066.53;1704615;83;20986;-59
2022/04/30 02:37:48;;;;;;;6.45;3.00;;;;;;;9.61;90.75;150070.41;1704091;83;21081;-58
2022/04/30 02:40:16;;;;;;;4.53;3.40;;;;;;;9.63;90.68;150075.64;1692595;83;21060;-58
2022/04/30 02:42:45;;;;;;;3.85;2.90;;;;;;;9.66;90.70;150082.09;1704277;83;21082;-58
2022/04/30 02:45:14;;;;;;;5.05;3.17;;;;;;;9.68;90.65;150087.28;1704313;83;21235;-59
2022/04/30 02:47:44;;;;;;;5.78;3.35;;;;;;;9.71;90.29;150096.36;1704448;83;21025;-59
2022/04/30 02:50:13;;;;;;;5.25;3.15;;;;;;;9.74;90.18;150104.14;1704465;84;21270;-59
2022/04/30 02:52:42;;;;;;;6.67;3.05;;;;;;;9.78;89.28;150111.91;1704510;83;20926;-60
2022/04/30 02:55:10;;;;;;;3.90;2.60;;;;;;;9.81;88.77;150121.00;1704647;84;21053;-60
2022/04/30 03:00:13;;;;;;;4.35;2.85;;;;;;;9.89;87.85;150140.47;1684446;82;24809;-61
2022/04/30 03:02:42;;;;;;;4.75;2.83;;;;;;;9.93;86.83;150150.84;1730311;82;21204;-59
2022/04/30 03:05:09;;;;;;;3.77;2.50;;;;;;;9.95;86.42;150156.03;1732980;82;21331;-60
2022/04/30 03:07:37;;;;;;;6.03;2.98;;;;;;;10.00;86.41;150168.98;1733025;82;21016;-61
2022/04/30 03:10:07;;;;;;;3.87;2.50;;;;;;;10.02;85.76;150174.17;1714761;82;21016;-59
2022/04/30 03:12:36;;;;;;;3.50;2.40;;;;;;;10.04;85.41;150179.34;1732964;82;21429;-60
2022/04/30 03:15:05;;;;;;;6.10;2.52;;;;;;;10.07;85.46;150184.59;1732989;82;21347;-60
2022/04/30 03:23:05;;;;;;;3.60;2.42;;;;;;;10.13;84.66;150200.13;1732996;82;21209;-59
2022/04/30 03:25:33;;;;;;;4.15;2.50;;;;;;;10.16;84.64;150207.91;1732882;82;21466;-60
2022/04/30 03:28:06;;;;;;;4.05;2.42;;;;;;;10.18;84.23;150213.09;1733014;82;21087;-59
2022/04/30 03:30:35;;;;;;;6.42;2.42;;;;;;;10.20;84.28;150217.02;1732865;82;20961;-59
2022/04/30 03:33:02;;;;;;;5.72;2.60;;;;;;;10.22;83.82;150223.47;1732974;82;21482;-60
2022/04/30 03:35:30;;;;;;;6.30;2.50;;;;;;;10.24;83.56;150228.66;1733716;82;20903;-60
2022/04/30 03:37:57;;;;;;;3.40;2.05;;;;;;;10.27;83.18;150236.44;1732601;82;21118;-59
2022/04/30 03:40:24;;;;;;;3.80;2.05;;;;;;;10.29;82.93;150241.66;1733237;82;21009;-59
2022/04/30 03:42:51;;;;;;;5.22;2.25;;;;;;;10.31;82.67;150245.53;1732765;82;21067;-59
2022/04/30 03:45:18;;;;;;;3.75;2.20;;;;;;;10.31;82.58;150245.53;1733328;82;21107;-59
2022/04/30 03:47:45;;;;;;;3.20;2.22;;;;;;;10.31;82.49;150246.84;1732722;82;21210;-59
2022/04/30 03:50:12;;;;;;;3.58;2.22;;;;;;;10.34;82.59;150252.03;1733099;82;21413;-58
2022/04/30 03:52:40;;;;;;;3.85;2.50;;;;;;;10.36;82.22;150257.22;1732678;82;21087;-60
2022/04/30 03:55:09;;;;;;;4.62;2.20;;;;;;;10.37;82.35;150259.81;1733188;82;21057;-60
2022/04/30 03:57:36;;;;;;;6.03;2.37;;;;;;;10.40;82.15;150267.59;1732998;82;21292;-59
2022/04/30 04:00:09;;;;;;;3.85;2.50;;;;;;;10.43;82.58;150276.73;1732921;82;21277;-59
2022/04/30 04:02:43;;;;;;;3.47;2.30;;;;;;;10.43;82.60;150275.42;1733149;82;21044;-59
2022/04/30 04:05:13;;;;;;;3.90;2.40;;;;;;;10.44;82.79;150279.33;1731543;82;21541;-60
2022/04/30 04:07:40;;;;;;;4.30;2.47;;;;;;;10.48;82.85;150288.38;1732066;82;21060;-59
2022/04/30 04:10:14;;;;;;;4.85;2.52;;;;;;;10.50;82.15;150293.61;1732324;82;20988;-59
2022/04/30 04:12:38;;;;;;;4.92;2.72;;;;;;;10.54;81.48;150302.66;1731885;82;21167;-60
2022/04/30 04:17:52;;;;;;;4.85;2.30;;;;;;;10.63;80.80;150324.73;1732700;82;21079;-59
2022/04/30 04:20:22;;;;;;;3.65;2.52;;;;;;;10.68;80.83;150337.70;1733185;82;21435;-60
2022/04/30 04:22:48;;;;;;;6.05;2.65;;;;;;;10.72;80.44;150348.06;1733077;82;21068;-60
2022/04/30 04:28:00;;;;;;;;;;;;;;;10.79;78.31;150366.28;1735718;82;21033;-59
2022/04/30 04:30:30;;;;;;;4.37;2.35;;;;;;;10.85;78.27;150380.56;1703702;84;20166;-60
2022/04/30 04:32:57;;;;;;;5.20;2.30;;;;;;;10.88;77.11;150389.63;1733227;82;21027;-59
2022/04/30 04:35:24;;;;;;;3.37;2.00;;;;;;;10.94;76.64;150403.91;1733274;82;21068;-58
2022/04/30 04:37:52;;;;;;;8.68;2.80;;;;;;;11.00;76.81;150418.20;1733192;82;21254;-60
2022/04/30 04:40:20;;;;;;;3.52;2.30;;;;;;;11.06;75.85;150432.48;1733184;82;21009;-59
2022/04/30 04:42:47;;;;;;;5.47;2.62;;;;;;;11.12;75.96;150448.06;1732377;82;21041;-59
2022/04/30 04:45:15;;;;;;;3.95;2.25;;;;;;;11.17;76.01;150462.34;1732733;82;22227;-60
2022/04/30 04:47:45;;;;;;;5.85;3.40;;;;;;;11.25;75.22;150480.50;1732585;82;21474;-59
2022/04/30 04:50:13;;;;;;;4.80;2.10;;;;;;;11.31;75.17;150496.06;1732882;82;21236;-59
2022/04/30 04:52:41;;;;;;;4.50;2.20;;;;;;;11.37;75.34;150511.64;1732698;82;21073;-58
2022/04/30 04:55:08;;;;;;;5.67;2.30;;;;;;;11.46;74.79;150535.03;1732850;82;21529;-59
2022/04/30 04:57:36;;;;;;;3.65;2.27;;;;;;;11.52;73.94;150548.02;1732525;82;20957;-59
2022/04/30 05:00:05;;;;;;;3.33;2.10;;;;;;;11.55;73.35;150555.80;1732799;82;21044;-59
2022/04/30 05:02:33;;;;;;;4.75;2.35;;;;;;;11.58;72.89;150563.58;1707473;82;21852;-58
2022/04/30 05:05:00;;;;;;;3.77;2.20;;;;;;;11.62;71.99;150574.02;1703526;84;21152;-59
2022/04/30 05:07:28;;;;;;;2.65;1.70;;;;;;;11.66;71.82;150584.39;1704317;83;21073;-60
2022/04/30 05:09:56;;;;;;;3.30;2.40;;;;;;;11.69;71.38;150592.17;1703810;84;21053;-60
2022/04/30 05:12:24;;;;;;;4.78;2.47;;;;;;;11.74;71.38;150603.87;1704341;83;20942;-60
2022/04/30 05:14:53;;;;;;;2.87;1.87;;;;;;;11.82;71.13;150624.64;1691630;84;21253;-59
2022/04/30 05:17:22;;;;;;;3.75;2.40;;;;;;;11.88;70.04;150640.22;1704425;83;21011;-60
2022/04/30 05:19:50;;;;;;;4.50;2.00;;;;;;;11.93;70.41;150651.92;1704283;84;21061;-60
2022/04/30 05:22:18;;;;;;;3.70;2.12;;;;;;;11.99;69.27;150667.50;1704551;83;21062;-59
2022/04/30 05:24:45;;;;;;;3.75;2.30;;;;;;;12.07;69.93;150685.77;1703888;83;21511;-60
2022/04/30 05:27:12;;;;;;;2.62;2.12;;;;;;;12.18;69.56;150714.31;1704190;83;21133;-59
2022/04/30 05:29:39;;;;;;;3.60;1.82;;;;;;;12.26;69.50;150735.09;1703866;84;21468;-59
2022/04/30 05:32:07;;;;;;;3.52;2.10;;;;;;;12.39;69.71;150767.61;1704014;83;21046;-59
2022/04/30 05:34:35;;;;;;;4.55;2.30;;;;;;;12.54;69.02;150803.97;1704249;84;21018;-59
2022/04/30 05:37:03;;;;;;;6.17;2.40;;;;;;;12.64;68.13;150829.98;1704068;84;21128;-60
2022/04/30 05:39:30;;;;;;;6.33;2.30;;;;;;;12.71;67.86;150848.16;1704509;83;21297;-59
2022/04/30 05:41:57;;;;;;;3.20;2.00;;;;;;;12.83;67.28;150878.06;1703556;83;21109;-60
2022/04/30 05:44:24;;;;;;;5.85;2.20;;;;;;;12.96;66.95;150910.55;1704318;84;21010;-60
2022/04/30 05:46:51;;;;;;;5.75;2.37;;;;;;;13.07;65.78;150937.84;1703149;84;21065;-59
2022/04/30 05:49:18;;;;;;;3.27;1.98;;;;;;;13.15;65.10;150957.34;1704268;84;21029;-59
2022/04/30 05:51:45;;;;;;;3.98;2.62;;;;;;;13.12;64.83;150950.84;1703390;84;21932;-59
2022/04/30 05:54:12;;;;;;;3.33;2.40;;;;;;;13.14;65.20;150954.75;1703670;84;21339;-59
2022/04/30 05:56:40;;;;;;;4.70;2.72;;;;;;;13.18;65.67;150966.47;1703645;84;21018;-60
2022/04/30 05:59:07;;;;;;;3.80;2.40;;;;;;;13.25;65.05;150982.06;1703455;84;21010;-59
2022/04/30 06:01:34;;;;;;;3.85;2.12;;;;;;;13.28;64.29;150989.86;1703363;83;20963;-59
2022/04/30 06:04:02;;;;;;;5.22;2.47;;;;;;;13.27;64.23;150987.25;1703328;84;21808;-60
2022/04/30 06:06:29;;;;;;;3.95;2.35;;;;;;;13.33;63.86;151002.84;1703388;84;21033;-59
2022/04/30 06:08:56;;;;;;;3.12;2.35;;;;;;;13.36;62.63;151010.64;1703050;84;21059;-58
2022/04/30 06:11:25;;;;;;;4.10;2.60;;;;;;;13.32;62.17;151001.56;1703949;84;20986;-59
2022/04/30 06:13:52;;;;;;;4.72;2.55;;;;;;;13.29;62.98;150992.45;1703313;84;21052;-60
2022/04/30 06:16:19;;;;;;;3.02;2.30;;;;;;;13.29;63.63;150992.45;1703884;84;21223;-60
2022/04/30 06:18:47;;;;;;;4.40;2.80;;;;;;;13.31;63.51;150997.66;1703307;84;21104;-59
2022/04/30 06:21:15;;;;;;;5.03;2.52;;;;;;;13.38;64.05;151015.89;1703691;84;21109;-60
2022/04/30 06:23:42;;;;;;;2.92;2.17;;;;;;;13.50;63.52;151044.52;1703832;84;21002;-59
2022/04/30 06:26:09;;;;;;;6.50;2.27;;;;;;;13.58;63.90;151065.31;1703575;83;21355;-59
2022/04/30 06:28:37;;;;;;;4.03;2.37;;;;;;;13.66;63.38;151086.14;1704209;84;21909;-59
2022/04/30 06:31:04;;;;;;;5.65;2.50;;;;;;;13.66;63.11;151086.14;1703336;84;21061;-59
2022/04/30 06:33:32;;;;;;;4.65;2.77;;;;;;;13.57;62.95;151062.70;1703546;84;21187;-60
2022/04/30 06:35:59;;;;;;;4.15;2.77;;;;;;;13.49;63.67;151043.23;1703071;83;21120;-59
2022/04/30 06:38:28;;;;;;;4.10;2.60;;;;;;;13.48;64.35;151039.31;1703963;84;20930;-60
2022/04/30 06:40:55;;;;;;;4.62;2.62;;;;;;;13.53;63.88;151052.31;1703309;84;21943;-60
2022/04/30 06:43:22;;;;;;;3.85;2.40;;;;;;;13.57;63.55;151062.70;1703773;84;21003;-60
2022/04/30 06:45:50;;;;;;;5.33;2.42;;;;;;;13.60;63.28;151070.55;1703350;84;21467;-60
2022/04/30 06:48:17;;;;;;;5.58;2.90;;;;;;;13.58;63.41;151065.31;1703768;83;21088;-60
2022/04/30 06:50:47;;;;;;;6.95;3.15;;;;;;;13.59;62.27;151067.91;1703617;83;21053;-61
2022/04/30 06:58:59;;;;;;;7.67;2.80;;;;;;;13.82;62.33;151125.17;1703944;84;21475;-58
2022/04/30 07:01:30;;;;;;;5.60;2.77;;;;;;;13.85;63.04;151134.25;1707094;82;21006;-60
2022/04/30 07:04:05;;;;;;;5.58;3.22;;;;;;;13.91;62.32;151148.56;1733106;82;21043;-60
2022/04/30 07:06:33;;;;;;;5.85;2.70;;;;;;;13.90;61.82;151145.97;1733164;82;21245;-59
2022/04/30 07:09:02;;;;;;;5.05;2.62;;;;;;;13.89;60.96;151143.38;1732392;82;21096;-61
2022/04/30 07:11:29;;;;;;;3.52;2.60;;;;;;;13.88;61.48;151140.77;1733190;82;21431;-60
2022/04/30 07:13:56;;;;;;;3.65;2.60;;;;;;;13.91;61.72;151148.56;1732749;82;21322;-61
2022/04/30 07:16:24;;;;;;;6.25;2.62;;;;;;;14.00;61.89;151171.97;1733200;82;21016;-60
2022/04/30 07:18:51;;;;;;;3.40;2.62;;;;;;;14.08;60.82;151191.48;1732617;82;21328;-60
2022/04/30 07:21:18;;;;;;;5.47;2.55;;;;;;;14.10;60.82;151195.41;1732955;82;21116;-60
2022/04/30 07:23:46;;;;;;;4.08;2.37;;;;;;;14.11;60.66;151198.00;1732641;82;21036;-60
2022/04/30 07:26:13;;;;;;;4.72;2.40;;;;;;;14.15;60.82;151208.41;1732983;82;21048;-60
2022/04/30 07:28:40;;;;;;;3.70;2.65;;;;;;;14.21;61.08;151222.73;1733304;82;20993;-60
2022/04/30 07:31:08;;;;;;;3.85;2.98;;;;;;;14.22;61.05;151226.59;1732809;82;21210;-61
2022/04/30 07:33:35;;;;;;;3.75;2.20;;;;;;;14.27;61.36;151238.33;1733028;82;21052;-61
2022/04/30 07:36:03;;;;;;;6.10;2.72;;;;;;;14.36;61.50;151260.45;1732654;82;21095;-59
2022/04/30 07:38:32;;;;;;;3.33;2.47;;;;;;;14.44;60.96;151281.25;1733015;82;21434;-60
2022/04/30 07:40:59;;;;;;;5.95;2.85;;;;;;;14.45;61.23;151283.84;1732647;82;21039;-60
2022/04/30 07:43:26;;;;;;;4.78;2.45;;;;;;;14.45;61.50;151283.84;1733162;82;21399;-60
2022/04/30 07:45:53;;;;;;;4.17;2.30;;;;;;;14.51;61.93;151299.50;1732616;82;20996;-59
2022/04/30 07:48:20;;;;;;;5.75;2.60;;;;;;;14.58;62.10;151317.70;1732946;82;21053;-60
2022/04/30 07:50:47;;;;;;;6.40;2.75;;;;;;;14.59;62.13;151320.31;1732738;82;21039;-60
2022/04/30 07:53:15;;;;;;;3.50;2.25;;;;;;;14.54;62.58;151307.30;1733064;82;21647;-58
2022/04/30 07:55:46;;;;;;;3.80;2.42;;;;;;;14.51;63.32;151299.50;1732749;82;21269;-60
2022/04/30 07:58:13;;;;;;;7.22;3.02;;;;;;;14.47;63.35;151289.05;1733110;82;20957;-61
2022/04/30 08:00:41;;;;;;;6.00;2.98;;;;;;;14.40;63.12;151270.84;1732947;82;21072;-58
2022/04/30 08:03:08;;;;;;;5.00;3.00;;;;;;;14.29;63.59;151243.53;1700290;83;21104;-59
2022/04/30 08:05:35;;;;;;;6.70;2.50;;;;;;;14.21;64.24;151224.00;1714227;83;20954;-59
2022/04/30 08:08:02;;;;;;;4.33;2.83;;;;;;;14.19;65.13;151218.81;1713573;83;21909;-59
2022/04/30 08:10:29;;;;;;;5.83;2.77;;;;;;;14.17;64.46;151214.92;1713596;83;20993;-60
2022/04/30 08:12:57;;;;;;;6.05;3.10;;;;;;;14.17;65.35;151214.92;1713270;83;21072;-59
2022/04/30 08:15:25;;;;;;;4.65;2.83;;;;;;;14.22;64.97;151226.59;1714054;83;21061;-60
2022/04/30 08:17:52;;;;;;;5.42;3.10;;;;;;;14.27;64.77;151239.66;1714279;83;21045;-60
2022/04/30 08:20:20;;;;;;;4.72;2.60;;;;;;;14.30;65.12;151247.45;1714185;83;21622;-60
2022/04/30 08:22:47;;;;;;;5.80;3.08;;;;;;;14.32;65.05;151252.66;1714200;83;21041;-60
2022/04/30 08:25:14;;;;;;;8.13;3.05;;;;;;;14.42;65.29;151276.05;1714140;83;21139;-60
2022/04/30 08:27:42;;;;;;;6.92;3.12;;;;;;;14.55;64.85;151309.91;1713838;83;21443;-59
2022/04/30 08:30:11;;;;;;;8.30;2.92;;;;;;;14.68;65.27;151341.11;1713686;83;20950;-60
2022/04/30 08:32:38;;;;;;;4.83;2.83;;;;;;;14.79;64.59;151368.50;1714196;83;21200;-60
2022/04/30 08:35:06;;;;;;;5.67;2.77;;;;;;;14.95;64.72;151410.16;1713483;83;21065;-61
2022/04/30 08:37:34;;;;;;;6.03;3.20;;;;;;;15.16;63.66;151463.56;1714251;82;20943;-62
2022/04/30 08:40:01;;;;;;;4.03;2.80;;;;;;;15.27;63.16;151489.56;1713457;83;21057;-60
2022/04/30 08:42:29;;;;;;;5.05;3.33;;;;;;;15.40;62.96;151523.44;1713906;83;20891;-61
2022/04/30 08:44:56;;;;;;;5.37;3.20;;;;;;;15.51;62.87;151550.78;1670260;83;21226;-61
2022/04/30 08:47:23;;;;;;;6.75;3.20;;;;;;;15.56;62.43;151562.47;1713917;83;21134;-61
2022/04/30 08:49:50;;;;;;;3.90;2.90;;;;;;;15.54;62.51;151557.27;1713426;83;21060;-61
2022/04/30 08:52:17;;;;;;;5.20;3.20;;;;;;;15.52;62.85;151553.39;1713984;83;21225;-62
2022/04/30 08:54:46;;;;;;;6.67;3.00;;;;;;;15.45;62.33;151536.45;1714037;83;21045;-61
2022/04/30 08:57:14;;;;;;;5.05;3.08;;;;;;;15.36;62.90;151512.98;1713986;83;21247;-61
2022/04/30 08:59:42;;;;;;;6.78;3.33;;;;;;;15.33;63.37;151505.19;1714173;83;20981;-59
2022/04/30 09:02:11;;;;;;;4.87;2.92;;;;;;;15.31;63.45;151499.97;1712488;83;21188;-60
2022/04/30 09:04:47;;;;;;;4.40;2.70;;;;;;;15.24;63.29;151481.77;1704072;84;21046;-60
2022/04/30 09:07:18;;;;;;;4.87;3.30;;;;;;;15.13;64.14;151455.70;1703887;83;21033;-58
2022/04/30 09:09:45;;;;;;;5.62;3.17;;;;;;;15.06;65.05;151437.48;1703919;83;21289;-59
2022/04/30 09:12:16;;;;;;;6.62;2.80;;;;;;;15.04;64.84;151432.28;1691844;84;21543;-60
2022/04/30 09:14:43;;;;;;;4.40;3.12;;;;;;;15.05;65.24;151434.89;1703967;84;21105;-61
2022/04/30 09:17:13;;;;;;;6.30;3.20;;;;;;;15.06;65.21;151437.48;1703928;84;21033;-61
2022/04/30 09:19:51;;;;;;;4.92;3.30;;;;;;;15.05;65.19;151434.89;1704470;84;21473;-61
2022/04/30 09:22:36;;;;;;;4.33;2.95;;;;;;;15.01;65.54;151424.48;1704178;83;21653;-60
2022/04/30 09:25:09;;;;;;;4.87;3.17;;;;;;;14.94;65.47;151406.28;1704537;83;21128;-61
2022/04/30 09:27:51;;;;;;;5.47;3.40;;;;;;;14.96;65.33;151412.75;1704245;83;20966;-60
2022/04/30 09:30:29;;;;;;;7.00;3.50;;;;;;;14.94;65.19;151406.28;1704328;83;21140;-60
2022/04/30 09:33:02;;;;;;;3.90;3.30;;;;;;;14.89;65.53;151395.83;1703854;83;21077;-60
2022/04/30 09:38:16;;;;;;;8.68;3.50;;;;;;;14.92;65.63;151401.03;1704338;84;21053;-60
2022/04/30 09:40:59;;;;;;;6.53;3.42;;;;;;;14.93;65.41;151404.95;1704208;83;20974;-60
2022/04/30 09:43:31;;;;;;;4.42;3.17;;;;;;;14.94;65.96;151407.56;1704324;83;20911;-59
2022/04/30 09:46:00;;;;;;;5.97;3.40;;;;;;;14.98;65.62;151416.69;1703798;84;21085;-59
2022/04/30 09:54:03;;;;;;;9.68;3.50;;;;;;;15.06;64.82;151437.48;1703837;83;21101;-61
2022/04/30 09:56:44;;;;;;;6.05;3.12;;;;;;;15.04;64.66;151432.28;1704312;84;21074;-59
2022/04/30 09:59:13;;;;;;;5.00;3.67;;;;;;;15.02;64.41;151428.36;1703757;84;21046;-61
2022/04/30 10:01:42;;;;;;;5.28;3.33;;;;;;;14.99;64.09;151419.28;1703904;83;21932;-59
2022/04/30 10:04:14;;;;;;;5.42;3.27;;;;;;;14.93;64.49;151404.95;1703812;83;21062;-60
2022/04/30 10:06:44;;;;;;;6.33;3.87;;;;;;;14.89;64.48;151395.83;1703859;83;20990;-60
2022/04/30 10:09:23;;;;;;;9.53;3.80;;;;;;;14.90;64.60;151397.16;1703874;83;21081;-60
2022/04/30 10:12:16;;;;;;;6.42;3.55;;;;;;;14.92;63.80;151401.03;1703817;84;21108;-60
2022/04/30 10:15:18;;;;;;;7.17;4.03;;;;;;;14.92;64.32;151401.03;1704158;84;21207;-61
2022/04/30 10:17:48;;;;;;;7.65;3.60;;;;;;;14.92;64.17;151401.03;1703804;83;20895;-61
2022/04/30 10:20:23;;;;;;;7.60;3.40;;;;;;;14.94;64.00;151407.56;1691136;84;21132;-61
2022/04/30 10:22:52;;;;;;;5.20;3.35;;;;;;;14.89;63.80;151395.83;1703783;84;21783;-60
2022/04/30 10:25:43;;;;;;;6.42;3.55;;;;;;;14.86;64.02;151388.03;1703470;84;21128;-59
2022/04/30 10:28:23;;;;;;;6.67;3.42;;;;;;;14.84;63.91;151381.55;1702981;83;21224;-63
2022/04/30 10:31:11;;;;;;;6.50;3.72;;;;;;;14.82;63.80;151377.62;1703207;83;21013;-59
2022/04/30 10:33:49;;;;;;;5.03;3.02;;;;;;;14.82;64.50;151377.62;1703447;84;21408;-61
2022/04/30 10:36:16;;;;;;;4.58;3.05;;;;;;;14.85;64.28;151384.14;1703692;83;21534;-59
2022/04/30 10:38:55;;;;;;;5.62;3.00;;;;;;;14.87;64.32;151390.63;1704576;83;21463;-63
2022/04/30 10:41:22;;;;;;;5.35;3.22;;;;;;;14.86;63.54;151386.75;1704336;84;21241;-59
2022/04/30 10:44:00;;;;;;;4.72;3.20;;;;;;;14.87;63.31;151389.34;1703478;84;21156;-61
2022/04/30 10:46:37;;;;;;;6.42;3.30;;;;;;;14.85;63.12;151384.14;1703577;84;21637;-60
2022/04/30 10:49:05;;;;;;;6.35;2.92;;;;;;;14.85;63.10;151385.42;1703623;83;21081;-60
2022/04/30 10:51:42;;;;;;;6.72;2.90;;;;;;;14.90;62.83;151398.42;1703770;84;21002;-58
2022/04/30 10:54:18;;;;;;;5.58;2.90;;;;;;;14.99;63.31;151419.28;1703186;83;21572;-59
2022/04/30 10:56:46;;;;;;;5.95;2.75;;;;;;;15.08;63.11;151442.69;1703206;84;21329;-59
2022/04/30 10:59:22;;;;;;;5.50;2.65;;;;;;;15.12;62.35;151451.83;1703478;83;21069;-59
2022/04/30 11:01:49;;;;;;;5.55;2.92;;;;;;;15.12;61.76;151451.83;1704025;83;21280;-60
2022/04/30 11:04:17;;;;;;;5.15;3.08;;;;;;;15.11;62.04;151450.50;1703834;83;21407;-59
2022/04/30 11:06:50;;;;;;;7.75;2.90;;;;;;;15.13;62.14;151454.42;1704274;84;21808;-59
2022/04/30 11:09:17;;;;;;;5.17;3.00;;;;;;;15.16;62.16;151463.56;1691853;84;21085;-60
2022/04/30 11:11:48;;;;;;;5.28;3.12;;;;;;;15.18;61.28;151467.44;1704150;83;20910;-61
2022/04/30 11:14:16;;;;;;;5.05;2.77;;;;;;;15.16;61.30;151463.56;1704111;84;20998;-59
2022/04/30 11:16:45;;;;;;;4.15;2.52;;;;;;;15.12;61.26;151453.09;1703908;84;21018;-59
2022/04/30 11:19:21;;;;;;;4.17;2.60;;;;;;;15.13;60.88;151455.70;1703548;83;21754;-61
2022/04/30 11:21:52;;;;;;;4.45;2.65;;;;;;;15.12;60.97;151451.83;1703008;83;22131;-59
2022/04/30 11:24:31;;;;;;;3.45;2.27;;;;;;;15.11;61.21;151449.22;1703744;84;21061;-59
2022/04/30 11:27:01;;;;;;;3.25;2.37;;;;;;;15.08;61.10;151442.69;1704267;84;21117;-60
2022/04/30 11:29:28;;;;;;;7.72;2.80;;;;;;;15.07;60.97;151440.09;1692348;84;20994;-60
2022/04/30 11:31:57;;;;;;;6.08;2.72;;;;;;;15.01;61.86;151424.48;1703943;83;21204;-59
2022/04/30 11:34:24;;;;;;;4.08;2.40;;;;;;;14.99;62.43;151419.28;1704722;84;21116;-59
2022/04/30 11:36:59;;;;;;;4.72;2.75;;;;;;;14.99;62.69;151419.28;1704536;84;21085;-59
2022/04/30 11:39:26;;;;;;;;;;;;;;;14.99;63.68;151420.56;1707036;84;21045;-60
2022/04/30 11:41:56;;;;;;;3.72;2.52;;;;;;;15.00;63.18;151423.16;1670921;85;20227;-59
2022/04/30 11:44:27;;;;;;;3.98;2.45;;;;;;;14.96;62.58;151412.75;1704838;84;21844;-60
2022/04/30 11:46:55;;;;;;;4.58;2.70;;;;;;;14.90;62.04;151398.42;1704032;84;21056;-59
2022/04/30 11:49:26;;;;;;;4.15;2.50;;;;;;;14.86;63.27;151388.03;1704428;84;21101;-60
2022/04/30 11:51:56;;;;;;;5.47;2.62;;;;;;;14.89;63.68;151394.55;1704436;84;21014;-59
2022/04/30 11:54:25;;;;;;;3.47;2.33;;;;;;;14.92;64.54;151401.03;1704524;83;21021;-60
2022/04/30 11:56:52;;;;;;;4.22;2.50;;;;;;;14.96;62.72;151411.48;1704194;83;21217;-60
2022/04/30 11:59:36;;;;;;;4.75;2.72;;;;;;;14.92;62.30;151401.03;1704342;84;21105;-60
2022/04/30 12:02:10;;;;;;;3.33;2.20;;;;;;;14.85;61.99;151385.42;1692260;84;21033;-59
2022/04/30 12:04:43;;;;;;;4.25;2.40;;;;;;;14.79;62.35;151369.81;1725395;82;20949;-59
2022/04/30 12:07:11;;;;;;;4.78;2.62;;;;;;;14.73;62.81;151354.22;1732939;82;21045;-59
2022/04/30 12:09:51;;;;;;;5.42;2.85;;;;;;;14.71;62.93;151349.00;1733030;82;21033;-59
2022/04/30 12:12:21;;;;;;;4.85;2.77;;;;;;;14.68;63.30;151342.44;1732942;82;21067;-60